Terminal Aerodrome Forecast
Issued by NWS

Home | Current Version | Previous Version | Text Only | Print | Product List | Glossary On
Versions: 1 2 3 4 5 6 7 8 9 10 11 12 13 14 15 16 17 18 19 20 21 22 23 24 25
000
FTUS43 KAPX 051120
TAFTVC
TAF
KTVC 051120Z 0512/0612 00000KT 1SM BR OVC003
     FM051400 24004KT 5SM BR OVC007
     FM051600 24005KT P6SM BKN012
     FM051700 36006KT P6SM SCT025
     FM060000 00000KT P6SM SCT035=

USA.gov is the U.S. government's official web portal to all federal, state and local government web resources and services.